sensor_id;sensor_type;location;lat;lon;timestamp;P1;durP1;ratioP1;P2;durP2;ratioP2
6821;SDS011;3449;48.728;8.968;2022-07-29T00:00:50;8.47;;;6.87;;
6821;SDS011;3449;48.728;8.968;2022-07-29T00:03:17;8.83;;;6.07;;
6821;SDS011;3449;48.728;8.968;2022-07-29T00:05:44;8.00;;;6.40;;
6821;SDS011;3449;48.728;8.968;2022-07-29T00:08:11;6.67;;;5.97;;
6821;SDS011;3449;48.728;8.968;2022-07-29T00:10:38;14.00;;;5.90;;
6821;SDS011;3449;48.728;8.968;2022-07-29T00:13:05;10.13;;;7.10;;
6821;SDS011;3449;48.728;8.968;2022-07-29T00:15:33;6.93;;;5.73;;
6821;SDS011;3449;48.728;8.968;2022-07-29T00:18:00;6.80;;;6.03;;
6821;SDS011;3449;48.728;8.968;2022-07-29T00:20:27;9.77;;;6.37;;
6821;SDS011;3449;48.728;8.968;2022-07-29T00:22:54;6.83;;;5.60;;
6821;SDS011;3449;48.728;8.968;2022-07-29T00:25:21;7.70;;;6.00;;
6821;SDS011;3449;48.728;8.968;2022-07-29T00:27:48;8.40;;;7.00;;
6821;SDS011;3449;48.728;8.968;2022-07-29T00:30:15;11.33;;;6.57;;
6821;SDS011;3449;48.728;8.968;2022-07-29T00:32:43;7.87;;;6.50;;
6821;SDS011;3449;48.728;8.968;2022-07-29T00:35:10;8.43;;;6.17;;
6821;SDS011;3449;48.728;8.968;2022-07-29T00:37:55;7.70;;;6.00;;
6821;SDS011;3449;48.728;8.968;2022-07-29T00:40:22;7.77;;;6.43;;
6821;SDS011;3449;48.728;8.968;2022-07-29T00:42:50;8.43;;;6.40;;
6821;SDS011;3449;48.728;8.968;2022-07-29T00:45:18;6.63;;;6.03;;
6821;SDS011;3449;48.728;8.968;2022-07-29T00:47:48;9.00;;;6.17;;
6821;SDS011;3449;48.728;8.968;2022-07-29T00:50:15;7.80;;;7.07;;
6821;SDS011;3449;48.728;8.968;2022-07-29T00:52:43;12.23;;;6.00;;
6821;SDS011;3449;48.728;8.968;2022-07-29T00:55:10;6.80;;;6.10;;
6821;SDS011;3449;48.728;8.968;2022-07-29T00:57:39;14.40;;;6.70;;
6821;SDS011;3449;48.728;8.968;2022-07-29T01:00:08;13.37;;;5.93;;
6821;SDS011;3449;48.728;8.968;2022-07-29T01:02:38;6.80;;;6.17;;
6821;SDS011;3449;48.728;8.968;2022-07-29T01:05:06;10.50;;;6.47;;
6821;SDS011;3449;48.728;8.968;2022-07-29T01:07:34;7.53;;;6.80;;
6821;SDS011;3449;48.728;8.968;2022-07-29T01:10:03;11.03;;;7.93;;
6821;SDS011;3449;48.728;8.968;2022-07-29T01:12:32;8.20;;;7.07;;
6821;SDS011;3449;48.728;8.968;2022-07-29T01:15:02;8.83;;;7.47;;
6821;SDS011;3449;48.728;8.968;2022-07-29T01:17:32;9.80;;;8.27;;
6821;SDS011;3449;48.728;8.968;2022-07-29T01:20:04;9.60;;;7.90;;
6821;SDS011;3449;48.728;8.968;2022-07-29T01:22:42;9.13;;;7.43;;
6821;SDS011;3449;48.728;8.968;2022-07-29T01:25:36;9.53;;;7.40;;
6821;SDS011;3449;48.728;8.968;2022-07-29T01:31:27;11.17;;;8.27;;
6821;SDS011;3449;48.728;8.968;2022-07-29T01:34:01;10.13;;;8.30;;
6821;SDS011;3449;48.728;8.968;2022-07-29T01:36:33;10.67;;;8.40;;
6821;SDS011;3449;48.728;8.968;2022-07-29T01:39:05;11.27;;;8.90;;
6821;SDS011;3449;48.728;8.968;2022-07-29T01:41:35;11.47;;;8.33;;
6821;SDS011;3449;48.728;8.968;2022-07-29T01:44:10;10.90;;;8.73;;
6821;SDS011;3449;48.728;8.968;2022-07-29T01:46:41;13.47;;;9.10;;
6821;SDS011;3449;48.728;8.968;2022-07-29T01:49:16;11.53;;;8.90;;
6821;SDS011;3449;48.728;8.968;2022-07-29T01:51:47;11.80;;;9.20;;
6821;SDS011;3449;48.728;8.968;2022-07-29T01:54:18;11.10;;;8.67;;
6821;SDS011;3449;48.728;8.968;2022-07-29T01:56:49;9.70;;;8.53;;
6821;SDS011;3449;48.728;8.968;2022-07-29T01:59:19;12.20;;;9.30;;
6821;SDS011;3449;48.728;8.968;2022-07-29T02:01:48;12.17;;;9.40;;
6821;SDS011;3449;48.728;8.968;2022-07-29T02:04:18;16.43;;;8.67;;
6821;SDS011;3449;48.728;8.968;2022-07-29T02:06:48;16.50;;;9.57;;
6821;SDS011;3449;48.728;8.968;2022-07-29T02:09:17;12.40;;;8.40;;
6821;SDS011;3449;48.728;8.968;2022-07-29T02:11:48;12.37;;;9.07;;
6821;SDS011;3449;48.728;8.968;2022-07-29T02:14:18;12.53;;;9.20;;
6821;SDS011;3449;48.728;8.968;2022-07-29T02:16:49;12.90;;;8.40;;
6821;SDS011;3449;48.728;8.968;2022-07-29T02:19:19;11.53;;;8.10;;
6821;SDS011;3449;48.728;8.968;2022-07-29T02:21:49;9.13;;;8.03;;
6821;SDS011;3449;48.728;8.968;2022-07-29T02:24:19;14.00;;;9.00;;
6821;SDS011;3449;48.728;8.968;2022-07-29T02:26:49;10.23;;;8.40;;
6821;SDS011;3449;48.728;8.968;2022-07-29T02:29:20;8.50;;;7.63;;
6821;SDS011;3449;48.728;8.968;2022-07-29T02:31:49;14.20;;;8.63;;
6821;SDS011;3449;48.728;8.968;2022-07-29T02:34:17;11.27;;;8.60;;
6821;SDS011;3449;48.728;8.968;2022-07-29T02:36:46;14.37;;;8.87;;
6821;SDS011;3449;48.728;8.968;2022-07-29T02:39:15;10.77;;;8.30;;
6821;SDS011;3449;48.728;8.968;2022-07-29T02:41:43;12.30;;;9.70;;
6821;SDS011;3449;48.728;8.968;2022-07-29T02:44:15;9.77;;;8.77;;
6821;SDS011;3449;48.728;8.968;2022-07-29T02:46:45;16.30;;;10.10;;
6821;SDS011;3449;48.728;8.968;2022-07-29T02:49:16;11.90;;;10.10;;
6821;SDS011;3449;48.728;8.968;2022-07-29T02:51:53;10.93;;;9.23;;
6821;SDS011;3449;48.728;8.968;2022-07-29T02:54:26;11.03;;;8.73;;
6821;SDS011;3449;48.728;8.968;2022-07-29T02:57:00;11.87;;;10.03;;
6821;SDS011;3449;48.728;8.968;2022-07-29T02:59:32;11.00;;;9.20;;
6821;SDS011;3449;48.728;8.968;2022-07-29T03:02:04;12.07;;;8.13;;
6821;SDS011;3449;48.728;8.968;2022-07-29T03:04:32;15.03;;;8.90;;
6821;SDS011;3449;48.728;8.968;2022-07-29T03:07:01;11.27;;;8.20;;
6821;SDS011;3449;48.728;8.968;2022-07-29T03:09:29;10.40;;;7.87;;
6821;SDS011;3449;48.728;8.968;2022-07-29T03:11:57;7.80;;;6.87;;
6821;SDS011;3449;48.728;8.968;2022-07-29T03:14:24;8.50;;;7.60;;
6821;SDS011;3449;48.728;8.968;2022-07-29T03:16:52;7.77;;;6.57;;
6821;SDS011;3449;48.728;8.968;2022-07-29T03:19:21;8.13;;;6.00;;
6821;SDS011;3449;48.728;8.968;2022-07-29T03:21:48;9.80;;;6.30;;
6821;SDS011;3449;48.728;8.968;2022-07-29T03:24:25;10.27;;;6.40;;
6821;SDS011;3449;48.728;8.968;2022-07-29T03:26:56;6.30;;;5.70;;
6821;SDS011;3449;48.728;8.968;2022-07-29T03:29:24;7.00;;;5.17;;
6821;SDS011;3449;48.728;8.968;2022-07-29T03:31:51;5.40;;;4.90;;
6821;SDS011;3449;48.728;8.968;2022-07-29T03:34:18;5.13;;;4.30;;
6821;SDS011;3449;48.728;8.968;2022-07-29T03:36:47;6.63;;;4.10;;
6821;SDS011;3449;48.728;8.968;2022-07-29T03:39:15;6.87;;;4.00;;
6821;SDS011;3449;48.728;8.968;2022-07-29T03:41:44;4.77;;;3.80;;
6821;SDS011;3449;48.728;8.968;2022-07-29T03:44:13;6.17;;;4.10;;
6821;SDS011;3449;48.728;8.968;2022-07-29T03:46:42;7.00;;;3.80;;
6821;SDS011;3449;48.728;8.968;2022-07-29T03:49:10;6.00;;;3.80;;
6821;SDS011;3449;48.728;8.968;2022-07-29T03:51:40;6.07;;;4.43;;
6821;SDS011;3449;48.728;8.968;2022-07-29T03:54:07;6.20;;;5.17;;
6821;SDS011;3449;48.728;8.968;2022-07-29T03:56:35;11.20;;;5.30;;
6821;SDS011;3449;48.728;8.968;2022-07-29T03:59:05;12.87;;;5.73;;
6821;SDS011;3449;48.728;8.968;2022-07-29T04:01:33;10.20;;;6.17;;
6821;SDS011;3449;48.728;8.968;2022-07-29T04:04:01;10.87;;;5.93;;
6821;SDS011;3449;48.728;8.968;2022-07-29T04:06:28;12.87;;;6.43;;
6821;SDS011;3449;48.728;8.968;2022-07-29T04:09:04;8.43;;;6.70;;
6821;SDS011;3449;48.728;8.968;2022-07-29T04:11:31;7.37;;;6.13;;
6821;SDS011;3449;48.728;8.968;2022-07-29T04:13:58;7.60;;;5.70;;
6821;SDS011;3449;48.728;8.968;2022-07-29T04:16:25;6.33;;;5.73;;
6821;SDS011;3449;48.728;8.968;2022-07-29T04:18:52;5.97;;;5.30;;
6821;SDS011;3449;48.728;8.968;2022-07-29T04:21:19;6.57;;;5.83;;
6821;SDS011;3449;48.728;8.968;2022-07-29T04:23:46;7.47;;;5.70;;
6821;SDS011;3449;48.728;8.968;2022-07-29T04:26:16;11.50;;;5.87;;
6821;SDS011;3449;48.728;8.968;2022-07-29T04:28:43;5.87;;;5.30;;
6821;SDS011;3449;48.728;8.968;2022-07-29T04:31:11;7.33;;;6.20;;
6821;SDS011;3449;48.728;8.968;2022-07-29T04:33:39;6.10;;;5.50;;
6821;SDS011;3449;48.728;8.968;2022-07-29T04:36:06;8.03;;;6.43;;
6821;SDS011;3449;48.728;8.968;2022-07-29T04:38:33;6.10;;;5.43;;
6821;SDS011;3449;48.728;8.968;2022-07-29T04:41:00;13.33;;;7.10;;
6821;SDS011;3449;48.728;8.968;2022-07-29T04:43:28;6.10;;;4.80;;
6821;SDS011;3449;48.728;8.968;2022-07-29T04:45:55;6.23;;;5.70;;
6821;SDS011;3449;48.728;8.968;2022-07-29T04:48:22;6.53;;;5.83;;
6821;SDS011;3449;48.728;8.968;2022-07-29T04:50:49;11.73;;;5.67;;
6821;SDS011;3449;48.728;8.968;2022-07-29T04:53:16;7.40;;;4.90;;
6821;SDS011;3449;48.728;8.968;2022-07-29T04:55:43;5.97;;;5.47;;
6821;SDS011;3449;48.728;8.968;2022-07-29T04:58:10;6.97;;;5.27;;
6821;SDS011;3449;48.728;8.968;2022-07-29T05:00:39;8.97;;;5.03;;
6821;SDS011;3449;48.728;8.968;2022-07-29T05:03:06;7.50;;;4.57;;
6821;SDS011;3449;48.728;8.968;2022-07-29T05:05:33;5.97;;;5.10;;
6821;SDS011;3449;48.728;8.968;2022-07-29T05:08:00;10.30;;;5.70;;
6821;SDS011;3449;48.728;8.968;2022-07-29T05:10:27;5.27;;;4.77;;
6821;SDS011;3449;48.728;8.968;2022-07-29T05:12:54;8.40;;;5.47;;
6821;SDS011;3449;48.728;8.968;2022-07-29T05:15:21;8.40;;;5.97;;
6821;SDS011;3449;48.728;8.968;2022-07-29T05:17:50;9.03;;;5.77;;
6821;SDS011;3449;48.728;8.968;2022-07-29T05:20:16;10.60;;;5.30;;
6821;SDS011;3449;48.728;8.968;2022-07-29T05:22:44;7.53;;;5.53;;
6821;SDS011;3449;48.728;8.968;2022-07-29T05:25:10;10.33;;;5.57;;
6821;SDS011;3449;48.728;8.968;2022-07-29T05:27:37;11.07;;;5.50;;
6821;SDS011;3449;48.728;8.968;2022-07-29T05:30:05;5.13;;;4.70;;
6821;SDS011;3449;48.728;8.968;2022-07-29T05:32:32;7.63;;;5.77;;
6821;SDS011;3449;48.728;8.968;2022-07-29T05:35:01;7.27;;;5.00;;
6821;SDS011;3449;48.728;8.968;2022-07-29T05:37:28;8.57;;;5.43;;
6821;SDS011;3449;48.728;8.968;2022-07-29T05:39:55;13.93;;;5.60;;
6821;SDS011;3449;48.728;8.968;2022-07-29T05:42:22;8.63;;;5.27;;
6821;SDS011;3449;48.728;8.968;2022-07-29T05:44:48;7.47;;;6.17;;
6821;SDS011;3449;48.728;8.968;2022-07-29T05:47:15;6.77;;;5.70;;
6821;SDS011;3449;48.728;8.968;2022-07-29T05:49:43;9.33;;;5.40;;
6821;SDS011;3449;48.728;8.968;2022-07-29T05:52:12;8.57;;;6.40;;
6821;SDS011;3449;48.728;8.968;2022-07-29T05:54:39;11.00;;;6.67;;
6821;SDS011;3449;48.728;8.968;2022-07-29T05:57:06;7.30;;;6.07;;
6821;SDS011;3449;48.728;8.968;2022-07-29T05:59:35;12.80;;;6.57;;
6821;SDS011;3449;48.728;8.968;2022-07-29T06:02:02;7.57;;;6.00;;
6821;SDS011;3449;48.728;8.968;2022-07-29T06:04:30;8.40;;;6.80;;
6821;SDS011;3449;48.728;8.968;2022-07-29T06:06:57;9.20;;;6.87;;
6821;SDS011;3449;48.728;8.968;2022-07-29T06:09:25;10.00;;;6.23;;
6821;SDS011;3449;48.728;8.968;2022-07-29T06:11:52;6.60;;;5.50;;
6821;SDS011;3449;48.728;8.968;2022-07-29T06:14:19;10.57;;;6.17;;
6821;SDS011;3449;48.728;8.968;2022-07-29T06:16:46;11.77;;;5.60;;
6821;SDS011;3449;48.728;8.968;2022-07-29T06:19:13;7.63;;;4.90;;
6821;SDS011;3449;48.728;8.968;2022-07-29T06:21:41;7.00;;;5.43;;
6821;SDS011;3449;48.728;8.968;2022-07-29T06:24:08;6.83;;;4.97;;
6821;SDS011;3449;48.728;8.968;2022-07-29T06:26:38;6.07;;;5.20;;
6821;SDS011;3449;48.728;8.968;2022-07-29T06:29:05;7.37;;;5.57;;
6821;SDS011;3449;48.728;8.968;2022-07-29T06:31:33;13.53;;;5.73;;
6821;SDS011;3449;48.728;8.968;2022-07-29T06:34:00;6.30;;;5.30;;
6821;SDS011;3449;48.728;8.968;2022-07-29T06:36:27;6.80;;;5.30;;
6821;SDS011;3449;48.728;8.968;2022-07-29T06:38:54;7.73;;;4.60;;
6821;SDS011;3449;48.728;8.968;2022-07-29T06:41:21;9.73;;;4.60;;
6821;SDS011;3449;48.728;8.968;2022-07-29T06:43:50;6.63;;;5.00;;
6821;SDS011;3449;48.728;8.968;2022-07-29T06:46:17;12.10;;;5.00;;
6821;SDS011;3449;48.728;8.968;2022-07-29T06:48:45;7.33;;;5.20;;
6821;SDS011;3449;48.728;8.968;2022-07-29T06:51:13;11.60;;;5.00;;
6821;SDS011;3449;48.728;8.968;2022-07-29T06:53:41;12.47;;;5.20;;
6821;SDS011;3449;48.728;8.968;2022-07-29T06:56:08;8.83;;;5.03;;
6821;SDS011;3449;48.728;8.968;2022-07-29T06:58:35;7.13;;;5.10;;
6821;SDS011;3449;48.728;8.968;2022-07-29T07:01:04;9.73;;;5.00;;
6821;SDS011;3449;48.728;8.968;2022-07-29T07:03:32;8.80;;;5.50;;
6821;SDS011;3449;48.728;8.968;2022-07-29T07:05:59;16.57;;;5.43;;
6821;SDS011;3449;48.728;8.968;2022-07-29T07:08:27;12.13;;;5.80;;
6821;SDS011;3449;48.728;8.968;2022-07-29T07:10:53;11.53;;;4.60;;
6821;SDS011;3449;48.728;8.968;2022-07-29T07:13:21;7.27;;;5.40;;
6821;SDS011;3449;48.728;8.968;2022-07-29T07:15:49;9.63;;;5.37;;
6821;SDS011;3449;48.728;8.968;2022-07-29T07:18:18;8.97;;;5.00;;
6821;SDS011;3449;48.728;8.968;2022-07-29T07:20:45;9.63;;;5.43;;
6821;SDS011;3449;48.728;8.968;2022-07-29T07:23:12;12.33;;;5.10;;
6821;SDS011;3449;48.728;8.968;2022-07-29T07:25:39;10.03;;;5.23;;
6821;SDS011;3449;48.728;8.968;2022-07-29T07:28:07;9.20;;;4.90;;
6821;SDS011;3449;48.728;8.968;2022-07-29T07:30:34;9.90;;;5.17;;
6821;SDS011;3449;48.728;8.968;2022-07-29T07:33:01;13.43;;;5.33;;
6821;SDS011;3449;48.728;8.968;2022-07-29T07:35:29;7.63;;;4.53;;
6821;SDS011;3449;48.728;8.968;2022-07-29T07:37:56;13.87;;;4.90;;
6821;SDS011;3449;48.728;8.968;2022-07-29T07:40:24;10.40;;;4.90;;
6821;SDS011;3449;48.728;8.968;2022-07-29T07:42:51;7.10;;;5.30;;
6821;SDS011;3449;48.728;8.968;2022-07-29T07:45:18;6.53;;;5.30;;
6821;SDS011;3449;48.728;8.968;2022-07-29T07:47:45;7.97;;;5.03;;
6821;SDS011;3449;48.728;8.968;2022-07-29T07:50:12;10.30;;;5.17;;
6821;SDS011;3449;48.728;8.968;2022-07-29T07:52:47;18.60;;;5.43;;
6821;SDS011;3449;48.728;8.968;2022-07-29T07:55:15;7.60;;;5.70;;
6821;SDS011;3449;48.728;8.968;2022-07-29T07:57:43;9.50;;;4.67;;
6821;SDS011;3449;48.728;8.968;2022-07-29T08:00:10;6.73;;;4.43;;
6821;SDS011;3449;48.728;8.968;2022-07-29T08:02:38;9.40;;;5.40;;
6821;SDS011;3449;48.728;8.968;2022-07-29T08:05:05;7.10;;;4.77;;
6821;SDS011;3449;48.728;8.968;2022-07-29T08:07:33;12.13;;;5.00;;
6821;SDS011;3449;48.728;8.968;2022-07-29T08:10:02;12.13;;;5.83;;
6821;SDS011;3449;48.728;8.968;2022-07-29T08:12:29;7.40;;;4.73;;
6821;SDS011;3449;48.728;8.968;2022-07-29T08:14:56;8.60;;;4.50;;
6821;SDS011;3449;48.728;8.968;2022-07-29T08:17:23;10.90;;;4.63;;
6821;SDS011;3449;48.728;8.968;2022-07-29T08:19:51;5.40;;;4.80;;
6821;SDS011;3449;48.728;8.968;2022-07-29T08:22:18;15.63;;;5.20;;
6821;SDS011;3449;48.728;8.968;2022-07-29T08:24:45;5.07;;;3.90;;
6821;SDS011;3449;48.728;8.968;2022-07-29T08:27:19;5.97;;;3.60;;
6821;SDS011;3449;48.728;8.968;2022-07-29T08:29:46;4.27;;;3.60;;
6821;SDS011;3449;48.728;8.968;2022-07-29T08:32:14;8.83;;;3.40;;
6821;SDS011;3449;48.728;8.968;2022-07-29T08:34:40;8.70;;;4.50;;
6821;SDS011;3449;48.728;8.968;2022-07-29T08:37:09;4.70;;;3.87;;
6821;SDS011;3449;48.728;8.968;2022-07-29T08:39:36;12.10;;;4.00;;
6821;SDS011;3449;48.728;8.968;2022-07-29T08:42:03;6.80;;;4.10;;
6821;SDS011;3449;48.728;8.968;2022-07-29T08:44:33;6.23;;;4.37;;
6821;SDS011;3449;48.728;8.968;2022-07-29T08:47:00;7.13;;;3.43;;
6821;SDS011;3449;48.728;8.968;2022-07-29T08:49:27;7.00;;;3.37;;
6821;SDS011;3449;48.728;8.968;2022-07-29T08:51:54;9.63;;;3.60;;
6821;SDS011;3449;48.728;8.968;2022-07-29T08:54:23;11.03;;;4.00;;
6821;SDS011;3449;48.728;8.968;2022-07-29T08:56:51;5.27;;;3.53;;
6821;SDS011;3449;48.728;8.968;2022-07-29T08:59:19;5.40;;;3.33;;
6821;SDS011;3449;48.728;8.968;2022-07-29T09:01:49;8.90;;;4.20;;
6821;SDS011;3449;48.728;8.968;2022-07-29T09:04:19;9.77;;;3.60;;
6821;SDS011;3449;48.728;8.968;2022-07-29T09:06:47;4.97;;;3.40;;
6821;SDS011;3449;48.728;8.968;2022-07-29T09:09:17;5.37;;;3.17;;
6821;SDS011;3449;48.728;8.968;2022-07-29T09:11:44;7.23;;;3.90;;
6821;SDS011;3449;48.728;8.968;2022-07-29T09:14:12;13.30;;;3.80;;
6821;SDS011;3449;48.728;8.968;2022-07-29T09:16:43;7.30;;;3.73;;
6821;SDS011;3449;48.728;8.968;2022-07-29T09:19:20;8.30;;;3.37;;
6821;SDS011;3449;48.728;8.968;2022-07-29T09:21:52;13.83;;;3.30;;
6821;SDS011;3449;48.728;8.968;2022-07-29T09:24:26;6.20;;;3.60;;
6821;SDS011;3449;48.728;8.968;2022-07-29T09:27:06;6.87;;;3.47;;
6821;SDS011;3449;48.728;8.968;2022-07-29T09:29:35;7.10;;;4.17;;
6821;SDS011;3449;48.728;8.968;2022-07-29T09:32:05;5.20;;;3.67;;
6821;SDS011;3449;48.728;8.968;2022-07-29T09:34:36;8.67;;;3.80;;
6821;SDS011;3449;48.728;8.968;2022-07-29T09:37:03;10.57;;;3.40;;
6821;SDS011;3449;48.728;8.968;2022-07-29T09:39:32;7.30;;;3.10;;
6821;SDS011;3449;48.728;8.968;2022-07-29T09:42:00;4.53;;;3.60;;
6821;SDS011;3449;48.728;8.968;2022-07-29T09:44:40;11.53;;;3.80;;
6821;SDS011;3449;48.728;8.968;2022-07-29T09:47:08;4.70;;;3.90;;
6821;SDS011;3449;48.728;8.968;2022-07-29T09:49:50;8.20;;;4.07;;
6821;SDS011;3449;48.728;8.968;2022-07-29T09:52:19;10.20;;;3.90;;
6821;SDS011;3449;48.728;8.968;2022-07-29T09:54:47;11.80;;;3.63;;
6821;SDS011;3449;48.728;8.968;2022-07-29T09:57:24;4.97;;;3.17;;
6821;SDS011;3449;48.728;8.968;2022-07-29T09:59:57;7.60;;;3.60;;
6821;SDS011;3449;48.728;8.968;2022-07-29T10:02:28;7.73;;;4.23;;
6821;SDS011;3449;48.728;8.968;2022-07-29T10:04:58;10.30;;;5.17;;
6821;SDS011;3449;48.728;8.968;2022-07-29T10:07:26;9.23;;;4.90;;
6821;SDS011;3449;48.728;8.968;2022-07-29T10:10:08;10.10;;;4.83;;
6821;SDS011;3449;48.728;8.968;2022-07-29T10:12:39;12.50;;;5.30;;
6821;SDS011;3449;48.728;8.968;2022-07-29T10:15:15;12.70;;;6.13;;
6821;SDS011;3449;48.728;8.968;2022-07-29T10:17:42;9.07;;;4.87;;
6821;SDS011;3449;48.728;8.968;2022-07-29T10:20:11;7.03;;;4.70;;
6821;SDS011;3449;48.728;8.968;2022-07-29T10:22:38;10.93;;;4.63;;
6821;SDS011;3449;48.728;8.968;2022-07-29T10:25:06;11.57;;;5.93;;
6821;SDS011;3449;48.728;8.968;2022-07-29T10:27:34;15.93;;;7.30;;
6821;SDS011;3449;48.728;8.968;2022-07-29T10:30:02;21.00;;;7.57;;
6821;SDS011;3449;48.728;8.968;2022-07-29T10:32:34;23.67;;;8.63;;
6821;SDS011;3449;48.728;8.968;2022-07-29T10:35:29;22.63;;;10.97;;
6821;SDS011;3449;48.728;8.968;2022-07-29T10:38:07;25.27;;;9.47;;
6821;SDS011;3449;48.728;8.968;2022-07-29T10:40:45;13.37;;;7.77;;
6821;SDS011;3449;48.728;8.968;2022-07-29T10:43:50;12.40;;;7.33;;
6821;SDS011;3449;48.728;8.968;2022-07-29T10:46:19;14.13;;;7.30;;
6821;SDS011;3449;48.728;8.968;2022-07-29T10:49:05;15.23;;;8.07;;
6821;SDS011;3449;48.728;8.968;2022-07-29T10:57:22;12.60;;;7.70;;
6821;SDS011;3449;48.728;8.968;2022-07-29T11:02:52;15.40;;;7.60;;
6821;SDS011;3449;48.728;8.968;2022-07-29T11:05:21;10.53;;;6.47;;
6821;SDS011;3449;48.728;8.968;2022-07-29T11:14:03;23.53;;;8.80;;
6821;SDS011;3449;48.728;8.968;2022-07-29T11:19:24;12.70;;;6.93;;
6821;SDS011;3449;48.728;8.968;2022-07-29T11:21:51;10.37;;;6.90;;
6821;SDS011;3449;48.728;8.968;2022-07-29T11:24:19;15.50;;;8.27;;
6821;SDS011;3449;48.728;8.968;2022-07-29T11:29:37;15.57;;;7.67;;
6821;SDS011;3449;48.728;8.968;2022-07-29T11:32:09;12.80;;;8.30;;
6821;SDS011;3449;48.728;8.968;2022-07-29T11:34:38;15.73;;;8.43;;
6821;SDS011;3449;48.728;8.968;2022-07-29T11:40:15;13.47;;;7.67;;
6821;SDS011;3449;48.728;8.968;2022-07-29T11:42:47;15.93;;;5.97;;
6821;SDS011;3449;48.728;8.968;2022-07-29T11:45:17;6.50;;;5.07;;
6821;SDS011;3449;48.728;8.968;2022-07-29T11:47:52;8.67;;;5.60;;
6821;SDS011;3449;48.728;8.968;2022-07-29T11:50:32;7.67;;;5.63;;
6821;SDS011;3449;48.728;8.968;2022-07-29T11:53:02;17.30;;;6.80;;
6821;SDS011;3449;48.728;8.968;2022-07-29T11:55:36;12.70;;;7.03;;
6821;SDS011;3449;48.728;8.968;2022-07-29T11:58:04;9.37;;;7.37;;
6821;SDS011;3449;48.728;8.968;2022-07-29T12:00:33;21.57;;;8.50;;
6821;SDS011;3449;48.728;8.968;2022-07-29T12:03:04;13.13;;;7.23;;
6821;SDS011;3449;48.728;8.968;2022-07-29T12:05:34;12.70;;;7.87;;
6821;SDS011;3449;48.728;8.968;2022-07-29T12:08:10;7.93;;;7.07;;
6821;SDS011;3449;48.728;8.968;2022-07-29T12:10:39;10.13;;;7.63;;
6821;SDS011;3449;48.728;8.968;2022-07-29T12:13:06;12.97;;;7.43;;
6821;SDS011;3449;48.728;8.968;2022-07-29T12:15:35;13.53;;;8.07;;
6821;SDS011;3449;48.728;8.968;2022-07-29T12:18:15;16.17;;;8.30;;
6821;SDS011;3449;48.728;8.968;2022-07-29T12:20:45;18.77;;;8.93;;
6821;SDS011;3449;48.728;8.968;2022-07-29T12:23:13;11.60;;;7.37;;
6821;SDS011;3449;48.728;8.968;2022-07-29T12:25:42;12.23;;;7.30;;
6821;SDS011;3449;48.728;8.968;2022-07-29T12:28:11;13.37;;;7.37;;
6821;SDS011;3449;48.728;8.968;2022-07-29T12:30:43;10.73;;;7.47;;
6821;SDS011;3449;48.728;8.968;2022-07-29T12:33:15;16.57;;;6.83;;
6821;SDS011;3449;48.728;8.968;2022-07-29T12:35:44;9.20;;;6.90;;
6821;SDS011;3449;48.728;8.968;2022-07-29T12:38:13;10.17;;;6.97;;
6821;SDS011;3449;48.728;8.968;2022-07-29T12:40:41;15.30;;;7.47;;
6821;SDS011;3449;48.728;8.968;2022-07-29T12:43:10;12.73;;;6.70;;
6821;SDS011;3449;48.728;8.968;2022-07-29T12:45:39;12.30;;;7.27;;
6821;SDS011;3449;48.728;8.968;2022-07-29T12:48:09;11.60;;;8.30;;
6821;SDS011;3449;48.728;8.968;2022-07-29T12:50:37;10.20;;;7.67;;
6821;SDS011;3449;48.728;8.968;2022-07-29T12:53:18;9.93;;;7.20;;
6821;SDS011;3449;48.728;8.968;2022-07-29T12:55:46;10.03;;;7.63;;
6821;SDS011;3449;48.728;8.968;2022-07-29T12:58:26;12.60;;;8.20;;
6821;SDS011;3449;48.728;8.968;2022-07-29T13:00:59;17.17;;;7.43;;
6821;SDS011;3449;48.728;8.968;2022-07-29T13:03:42;8.37;;;6.50;;
6821;SDS011;3449;48.728;8.968;2022-07-29T13:09:00;6.87;;;6.17;;
6821;SDS011;3449;48.728;8.968;2022-07-29T13:11:30;11.40;;;6.23;;
6821;SDS011;3449;48.728;8.968;2022-07-29T13:13:57;9.30;;;6.50;;
6821;SDS011;3449;48.728;8.968;2022-07-29T13:16:24;7.13;;;6.43;;
6821;SDS011;3449;48.728;8.968;2022-07-29T13:19:04;16.00;;;6.37;;
6821;SDS011;3449;48.728;8.968;2022-07-29T13:21:32;10.67;;;6.67;;
6821;SDS011;3449;48.728;8.968;2022-07-29T13:23:59;14.10;;;6.37;;
6821;SDS011;3449;48.728;8.968;2022-07-29T13:26:26;10.40;;;6.77;;
6821;SDS011;3449;48.728;8.968;2022-07-29T13:28:53;12.93;;;6.70;;
6821;SDS011;3449;48.728;8.968;2022-07-29T13:31:20;7.60;;;6.30;;
6821;SDS011;3449;48.728;8.968;2022-07-29T13:33:48;9.70;;;5.83;;
6821;SDS011;3449;48.728;8.968;2022-07-29T13:36:16;7.13;;;5.83;;
6821;SDS011;3449;48.728;8.968;2022-07-29T13:38:43;9.50;;;6.10;;
6821;SDS011;3449;48.728;8.968;2022-07-29T13:41:11;13.20;;;5.67;;
6821;SDS011;3449;48.728;8.968;2022-07-29T13:43:38;11.67;;;6.07;;
6821;SDS011;3449;48.728;8.968;2022-07-29T13:46:05;10.03;;;5.47;;
6821;SDS011;3449;48.728;8.968;2022-07-29T13:48:32;8.40;;;6.63;;
6821;SDS011;3449;48.728;8.968;2022-07-29T13:50:59;11.30;;;6.53;;
6821;SDS011;3449;48.728;8.968;2022-07-29T13:53:28;7.10;;;6.40;;
6821;SDS011;3449;48.728;8.968;2022-07-29T13:55:55;7.90;;;6.10;;
6821;SDS011;3449;48.728;8.968;2022-07-29T13:58:22;12.50;;;6.30;;
6821;SDS011;3449;48.728;8.968;2022-07-29T14:00:50;9.83;;;6.30;;
6821;SDS011;3449;48.728;8.968;2022-07-29T14:03:17;7.50;;;6.13;;
6821;SDS011;3449;48.728;8.968;2022-07-29T14:05:44;10.73;;;6.03;;
6821;SDS011;3449;48.728;8.968;2022-07-29T14:08:11;6.77;;;5.87;;
6821;SDS011;3449;48.728;8.968;2022-07-29T14:10:39;6.83;;;5.63;;
6821;SDS011;3449;48.728;8.968;2022-07-29T14:13:06;6.47;;;5.87;;
6821;SDS011;3449;48.728;8.968;2022-07-29T14:15:34;13.00;;;6.17;;
6821;SDS011;3449;48.728;8.968;2022-07-29T14:18:01;9.77;;;5.77;;
6821;SDS011;3449;48.728;8.968;2022-07-29T14:20:28;10.20;;;6.20;;
6821;SDS011;3449;48.728;8.968;2022-07-29T14:22:55;11.50;;;6.17;;
6821;SDS011;3449;48.728;8.968;2022-07-29T14:25:22;13.20;;;7.13;;
6821;SDS011;3449;48.728;8.968;2022-07-29T14:27:51;8.83;;;7.00;;
6821;SDS011;3449;48.728;8.968;2022-07-29T14:30:19;9.17;;;6.53;;
6821;SDS011;3449;48.728;8.968;2022-07-29T14:32:47;11.03;;;6.70;;
6821;SDS011;3449;48.728;8.968;2022-07-29T14:35:14;7.83;;;6.37;;
6821;SDS011;3449;48.728;8.968;2022-07-29T14:37:40;8.50;;;6.30;;
6821;SDS011;3449;48.728;8.968;2022-07-29T14:40:08;7.03;;;5.93;;
6821;SDS011;3449;48.728;8.968;2022-07-29T14:42:36;14.13;;;6.40;;
6821;SDS011;3449;48.728;8.968;2022-07-29T14:45:06;7.57;;;6.10;;
6821;SDS011;3449;48.728;8.968;2022-07-29T14:47:34;10.87;;;6.23;;
6821;SDS011;3449;48.728;8.968;2022-07-29T14:50:02;9.40;;;6.47;;
6821;SDS011;3449;48.728;8.968;2022-07-29T14:52:30;9.90;;;6.77;;
6821;SDS011;3449;48.728;8.968;2022-07-29T14:54:57;9.63;;;6.30;;
6821;SDS011;3449;48.728;8.968;2022-07-29T14:57:24;8.10;;;6.77;;
6821;SDS011;3449;48.728;8.968;2022-07-29T14:59:51;8.13;;;6.00;;
6821;SDS011;3449;48.728;8.968;2022-07-29T15:02:19;9.33;;;5.87;;
6821;SDS011;3449;48.728;8.968;2022-07-29T15:04:46;11.93;;;6.80;;
6821;SDS011;3449;48.728;8.968;2022-07-29T15:07:13;10.50;;;6.53;;
6821;SDS011;3449;48.728;8.968;2022-07-29T15:09:41;13.63;;;6.97;;
6821;SDS011;3449;48.728;8.968;2022-07-29T15:12:10;13.10;;;6.27;;
6821;SDS011;3449;48.728;8.968;2022-07-29T15:14:37;8.60;;;6.30;;
6821;SDS011;3449;48.728;8.968;2022-07-29T15:17:04;12.97;;;6.07;;
6821;SDS011;3449;48.728;8.968;2022-07-29T15:19:32;8.70;;;6.20;;
6821;SDS011;3449;48.728;8.968;2022-07-29T15:21:59;8.40;;;6.60;;
6821;SDS011;3449;48.728;8.968;2022-07-29T15:24:26;14.30;;;6.97;;
6821;SDS011;3449;48.728;8.968;2022-07-29T15:26:53;7.00;;;5.70;;
6821;SDS011;3449;48.728;8.968;2022-07-29T15:29:20;11.57;;;6.37;;
6821;SDS011;3449;48.728;8.968;2022-07-29T15:31:47;7.90;;;5.40;;
6821;SDS011;3449;48.728;8.968;2022-07-29T15:34:14;9.53;;;6.47;;
6821;SDS011;3449;48.728;8.968;2022-07-29T15:36:42;12.70;;;6.83;;
6821;SDS011;3449;48.728;8.968;2022-07-29T15:39:09;7.53;;;5.70;;
6821;SDS011;3449;48.728;8.968;2022-07-29T15:41:36;6.97;;;5.33;;
6821;SDS011;3449;48.728;8.968;2022-07-29T15:44:03;5.50;;;4.83;;
6821;SDS011;3449;48.728;8.968;2022-07-29T15:46:30;9.40;;;6.10;;
6821;SDS011;3449;48.728;8.968;2022-07-29T15:49:14;6.13;;;5.53;;
6821;SDS011;3449;48.728;8.968;2022-07-29T15:51:43;8.00;;;5.87;;